This is the latest recevied weather packets stored in our database for station/object EA4BCR. If no packets are shown the sender has not sent any weather packets the latest 10 day(s).
| Time | Temp. | Humidity | Pressure | Rain* | Wind** | Luminosity | Snow |
|---|---|---|---|---|---|---|---|
| 1777450610 | 14.44° C | 92% | 1010.5 hPa | - | - | - | - |
| 1777450010 | 15° C | 90% | 1010.5 hPa | - | - | - | - |
| 1777449410 | 15° C | 88% | 1010.5 hPa | - | - | - | - |
| 1777448810 | 15° C | 86% | 1010.5 hPa | - | - | - | - |
| 1777448210 | 15° C | 87% | 1010.5 hPa | - | - | - | - |
| 1777447610 | 15° C | 83% | 1010.1 hPa | - | - | - | - |
| 1777447010 | 13.89° C | 87% | 1010.4 hPa | - | - | - | - |
| 1777446410 | 14.44° C | 89% | 1010.3 hPa | - | - | - | - |
| 1777445810 | 14.44° C | 87% | 1010.2 hPa | - | - | - | - |
| 1777445210 | 14.44° C | 88% | 1010.1 hPa | - | - | - | - |
| 1777444610 | 14.44° C | 90% | 1010 hPa | - | - | - | - |
| 1777444010 | 13.89° C | 91% | 1010 hPa | - | - | - | - |
| 1777443410 | 13.89° C | 93% | 1009.9 hPa | - | - | - | - |
| 1777442810 | 13.89° C | 93% | 1010 hPa | - | - | - | - |
| 1777442210 | 13.89° C | 91% | 1009.7 hPa | - | - | - | - |
| 1777441610 | 15° C | 84% | 1009.3 hPa | - | - | - | - |
| 1777441010 | 15° C | 84% | 1009.2 hPa | - | - | - | - |
| 1777440410 | 15° C | 85% | 1009 hPa | - | - | - | - |
| 1777439810 | 15° C | 84% | 1009.1 hPa | - | - | - | - |
| 1777439210 | 15° C | 86% | 1009.1 hPa | - | - | - | - |
| 1777438610 | 14.44° C | 87% | 1009.3 hPa | - | - | - | - |
| 1777438010 | 14.44° C | 88% | 1009.3 hPa | - | - | - | - |
| 1777437410 | 13.89° C | 93% | 1009.6 hPa | - | - | - | - |
| 1777436810 | 13.33° C | 93% | 1009.8 hPa | - | - | - | - |
| 1777436210 | 13.33° C | 95% | 1009.6 hPa | - | - | - | - |
* Rain since midnight (hover to see other rain measurements)
** Current wind speed in m/s (hover to see current wind gust speed)